sensor_id;sensor_type;location;lat;lon;timestamp;P1;durP1;ratioP1;P2;durP2;ratioP2
48767;SDS011;34933;40.968;14.538;2023-10-08T00:01:47;19.55;;;17.48;;
48767;SDS011;34933;40.968;14.538;2023-10-08T00:04:32;23.55;;;20.08;;
48767;SDS011;34933;40.968;14.538;2023-10-08T00:07:22;21.85;;;19.33;;
48767;SDS011;34933;40.968;14.538;2023-10-08T00:10:11;23.80;;;20.13;;
48767;SDS011;34933;40.968;14.538;2023-10-08T00:12:57;28.85;;;21.52;;
48767;SDS011;34933;40.968;14.538;2023-10-08T00:15:42;21.48;;;18.67;;
48767;SDS011;34933;40.968;14.538;2023-10-08T00:18:39;25.77;;;20.63;;
48767;SDS011;34933;40.968;14.538;2023-10-08T00:21:25;25.10;;;19.33;;
48767;SDS011;34933;40.968;14.538;2023-10-08T00:24:10;23.15;;;20.17;;
48767;SDS011;34933;40.968;14.538;2023-10-08T00:26:59;22.42;;;20.02;;
48767;SDS011;34933;40.968;14.538;2023-10-08T00:29:44;26.55;;;20.80;;
48767;SDS011;34933;40.968;14.538;2023-10-08T00:32:29;24.35;;;20.02;;
48767;SDS011;34933;40.968;14.538;2023-10-08T00:35:14;22.00;;;19.65;;
48767;SDS011;34933;40.968;14.538;2023-10-08T00:38:04;23.13;;;19.92;;
48767;SDS011;34933;40.968;14.538;2023-10-08T00:40:58;21.88;;;19.52;;
48767;SDS011;34933;40.968;14.538;2023-10-08T00:43:44;20.55;;;18.15;;
48767;SDS011;34933;40.968;14.538;2023-10-08T00:46:29;22.60;;;20.05;;
48767;SDS011;34933;40.968;14.538;2023-10-08T00:49:23;21.90;;;19.58;;
48767;SDS011;34933;40.968;14.538;2023-10-08T00:52:10;23.23;;;20.55;;
48767;SDS011;34933;40.968;14.538;2023-10-08T00:54:55;23.20;;;20.65;;
48767;SDS011;34933;40.968;14.538;2023-10-08T00:57:52;24.77;;;20.45;;
48767;SDS011;34933;40.968;14.538;2023-10-08T01:00:42;26.00;;;21.13;;
48767;SDS011;34933;40.968;14.538;2023-10-08T01:03:27;25.70;;;20.23;;
48767;SDS011;34933;40.968;14.538;2023-10-08T01:06:12;28.80;;;25.63;;
48767;SDS011;34933;40.968;14.538;2023-10-08T01:09:01;24.35;;;21.25;;
48767;SDS011;34933;40.968;14.538;2023-10-08T01:14:52;23.73;;;19.40;;
48767;SDS011;34933;40.968;14.538;2023-10-08T01:17:38;21.40;;;19.20;;
48767;SDS011;34933;40.968;14.538;2023-10-08T01:20:31;24.85;;;20.90;;
48767;SDS011;34933;40.968;14.538;2023-10-08T01:23:35;22.35;;;19.63;;
48767;SDS011;34933;40.968;14.538;2023-10-08T01:26:22;23.58;;;20.23;;
48767;SDS011;34933;40.968;14.538;2023-10-08T01:29:10;25.35;;;21.13;;
48767;SDS011;34933;40.968;14.538;2023-10-08T01:32:03;23.40;;;21.10;;
48767;SDS011;34933;40.968;14.538;2023-10-08T01:34:53;24.80;;;21.52;;
48767;SDS011;34933;40.968;14.538;2023-10-08T01:37:38;24.88;;;21.92;;
48767;SDS011;34933;40.968;14.538;2023-10-08T01:40:24;25.88;;;21.65;;
48767;SDS011;34933;40.968;14.538;2023-10-08T01:43:09;24.52;;;21.92;;
48767;SDS011;34933;40.968;14.538;2023-10-08T01:45:57;25.08;;;21.85;;
48767;SDS011;34933;40.968;14.538;2023-10-08T01:48:42;24.60;;;21.30;;
48767;SDS011;34933;40.968;14.538;2023-10-08T01:51:28;27.85;;;21.90;;
48767;SDS011;34933;40.968;14.538;2023-10-08T01:54:21;23.92;;;20.95;;
48767;SDS011;34933;40.968;14.538;2023-10-08T01:57:06;22.95;;;20.52;;
48767;SDS011;34933;40.968;14.538;2023-10-08T01:59:54;26.55;;;20.77;;
48767;SDS011;34933;40.968;14.538;2023-10-08T02:02:38;24.42;;;20.67;;
48767;SDS011;34933;40.968;14.538;2023-10-08T02:05:24;23.00;;;20.48;;
48767;SDS011;34933;40.968;14.538;2023-10-08T02:08:09;23.15;;;19.13;;
48767;SDS011;34933;40.968;14.538;2023-10-08T02:10:54;26.05;;;22.13;;
48767;SDS011;34933;40.968;14.538;2023-10-08T02:13:40;24.55;;;21.50;;
48767;SDS011;34933;40.968;14.538;2023-10-08T02:16:26;23.95;;;20.05;;
48767;SDS011;34933;40.968;14.538;2023-10-08T02:19:12;24.02;;;21.42;;
48767;SDS011;34933;40.968;14.538;2023-10-08T02:21:57;23.58;;;19.85;;
48767;SDS011;34933;40.968;14.538;2023-10-08T02:24:42;22.73;;;19.85;;
48767;SDS011;34933;40.968;14.538;2023-10-08T02:27:30;23.00;;;20.58;;
48767;SDS011;34933;40.968;14.538;2023-10-08T02:30:17;24.75;;;20.27;;
48767;SDS011;34933;40.968;14.538;2023-10-08T02:33:02;25.13;;;22.38;;
48767;SDS011;34933;40.968;14.538;2023-10-08T02:35:47;26.85;;;21.38;;
48767;SDS011;34933;40.968;14.538;2023-10-08T02:38:33;24.35;;;21.40;;
48767;SDS011;34933;40.968;14.538;2023-10-08T02:41:21;23.52;;;20.98;;
48767;SDS011;34933;40.968;14.538;2023-10-08T02:44:08;27.00;;;22.02;;
48767;SDS011;34933;40.968;14.538;2023-10-08T02:46:56;27.20;;;21.67;;
48767;SDS011;34933;40.968;14.538;2023-10-08T02:49:41;23.48;;;19.40;;
48767;SDS011;34933;40.968;14.538;2023-10-08T02:52:26;24.98;;;21.88;;
48767;SDS011;34933;40.968;14.538;2023-10-08T02:55:11;22.85;;;19.00;;
48767;SDS011;34933;40.968;14.538;2023-10-08T02:58:09;27.52;;;22.35;;
48767;SDS011;34933;40.968;14.538;2023-10-08T03:01:02;23.88;;;21.23;;
48767;SDS011;34933;40.968;14.538;2023-10-08T03:03:47;24.10;;;20.83;;
48767;SDS011;34933;40.968;14.538;2023-10-08T03:06:32;23.92;;;21.35;;
48767;SDS011;34933;40.968;14.538;2023-10-08T03:09:17;25.77;;;20.85;;
48767;SDS011;34933;40.968;14.538;2023-10-08T03:12:08;25.80;;;22.45;;
48767;SDS011;34933;40.968;14.538;2023-10-08T03:14:53;24.92;;;21.55;;
48767;SDS011;34933;40.968;14.538;2023-10-08T03:18:00;26.02;;;22.10;;
48767;SDS011;34933;40.968;14.538;2023-10-08T03:20:54;25.90;;;21.17;;
48767;SDS011;34933;40.968;14.538;2023-10-08T03:23:47;27.45;;;22.88;;
48767;SDS011;34933;40.968;14.538;2023-10-08T03:26:33;22.95;;;20.55;;
48767;SDS011;34933;40.968;14.538;2023-10-08T03:29:19;22.90;;;19.92;;
48767;SDS011;34933;40.968;14.538;2023-10-08T03:32:03;23.27;;;20.42;;
48767;SDS011;34933;40.968;14.538;2023-10-08T03:34:50;24.13;;;21.30;;
48767;SDS011;34933;40.968;14.538;2023-10-08T03:37:38;24.15;;;20.40;;
48767;SDS011;34933;40.968;14.538;2023-10-08T03:40:30;22.92;;;20.27;;
48767;SDS011;34933;40.968;14.538;2023-10-08T03:43:27;24.63;;;21.30;;
48767;SDS011;34933;40.968;14.538;2023-10-08T03:46:47;23.80;;;19.90;;
48767;SDS011;34933;40.968;14.538;2023-10-08T03:49:32;24.35;;;20.38;;
48767;SDS011;34933;40.968;14.538;2023-10-08T03:52:17;25.42;;;22.15;;
48767;SDS011;34933;40.968;14.538;2023-10-08T03:55:07;25.40;;;20.48;;
48767;SDS011;34933;40.968;14.538;2023-10-08T03:58:12;22.52;;;20.13;;
48767;SDS011;34933;40.968;14.538;2023-10-08T04:01:17;25.98;;;20.30;;
48767;SDS011;34933;40.968;14.538;2023-10-08T04:04:02;22.25;;;19.73;;
48767;SDS011;34933;40.968;14.538;2023-10-08T04:06:47;25.15;;;20.23;;
48767;SDS011;34933;40.968;14.538;2023-10-08T04:09:38;21.45;;;18.52;;
48767;SDS011;34933;40.968;14.538;2023-10-08T04:12:23;26.45;;;19.58;;
48767;SDS011;34933;40.968;14.538;2023-10-08T04:15:11;23.20;;;18.85;;
48767;SDS011;34933;40.968;14.538;2023-10-08T04:18:00;21.42;;;18.77;;
48767;SDS011;34933;40.968;14.538;2023-10-08T04:20:47;21.70;;;18.80;;
48767;SDS011;34933;40.968;14.538;2023-10-08T04:23:44;20.10;;;17.98;;
48767;SDS011;34933;40.968;14.538;2023-10-08T04:26:32;24.83;;;17.88;;
48767;SDS011;34933;40.968;14.538;2023-10-08T04:29:16;20.95;;;17.77;;
48767;SDS011;34933;40.968;14.538;2023-10-08T04:32:06;21.80;;;17.50;;
48767;SDS011;34933;40.968;14.538;2023-10-08T04:34:56;20.75;;;17.40;;
48767;SDS011;34933;40.968;14.538;2023-10-08T04:37:40;21.50;;;16.23;;
48767;SDS011;34933;40.968;14.538;2023-10-08T04:40:25;21.52;;;16.90;;
48767;SDS011;34933;40.968;14.538;2023-10-08T04:43:09;17.73;;;15.82;;
48767;SDS011;34933;40.968;14.538;2023-10-08T04:45:54;25.15;;;15.77;;
48767;SDS011;34933;40.968;14.538;2023-10-08T04:48:42;20.98;;;15.70;;
48767;SDS011;34933;40.968;14.538;2023-10-08T04:51:27;17.65;;;15.13;;
48767;SDS011;34933;40.968;14.538;2023-10-08T04:54:18;17.13;;;15.38;;
48767;SDS011;34933;40.968;14.538;2023-10-08T04:57:02;20.35;;;15.75;;
48767;SDS011;34933;40.968;14.538;2023-10-08T04:59:49;19.00;;;15.07;;
48767;SDS011;34933;40.968;14.538;2023-10-08T05:02:34;18.90;;;15.88;;
48767;SDS011;34933;40.968;14.538;2023-10-08T05:05:32;25.92;;;15.80;;
48767;SDS011;34933;40.968;14.538;2023-10-08T05:08:37;14.77;;;13.25;;
48767;SDS011;34933;40.968;14.538;2023-10-08T05:11:40;18.80;;;14.52;;
48767;SDS011;34933;40.968;14.538;2023-10-08T05:14:50;15.88;;;14.15;;
48767;SDS011;34933;40.968;14.538;2023-10-08T05:18:01;15.45;;;13.20;;
48767;SDS011;34933;40.968;14.538;2023-10-08T05:21:04;19.48;;;13.77;;
48767;SDS011;34933;40.968;14.538;2023-10-08T05:24:08;16.45;;;12.85;;
48767;SDS011;34933;40.968;14.538;2023-10-08T05:26:56;16.73;;;13.80;;
48767;SDS011;34933;40.968;14.538;2023-10-08T05:30:02;17.67;;;13.68;;
48767;SDS011;34933;40.968;14.538;2023-10-08T05:32:59;18.08;;;13.50;;
48767;SDS011;34933;40.968;14.538;2023-10-08T05:35:46;20.65;;;12.52;;
48767;SDS011;34933;40.968;14.538;2023-10-08T05:38:31;14.20;;;12.32;;
48767;SDS011;34933;40.968;14.538;2023-10-08T05:41:18;16.98;;;12.77;;
48767;SDS011;34933;40.968;14.538;2023-10-08T05:44:12;17.05;;;13.07;;
48767;SDS011;34933;40.968;14.538;2023-10-08T05:47:03;16.85;;;13.02;;
48767;SDS011;34933;40.968;14.538;2023-10-08T05:49:56;17.92;;;12.93;;
48767;SDS011;34933;40.968;14.538;2023-10-08T05:53:00;16.52;;;13.23;;
48767;SDS011;34933;40.968;14.538;2023-10-08T05:55:44;13.25;;;11.85;;
48767;SDS011;34933;40.968;14.538;2023-10-08T05:58:45;14.43;;;11.88;;
48767;SDS011;34933;40.968;14.538;2023-10-08T06:01:43;16.83;;;12.27;;
48767;SDS011;34933;40.968;14.538;2023-10-08T06:04:30;22.73;;;13.07;;
48767;SDS011;34933;40.968;14.538;2023-10-08T06:07:50;14.98;;;12.23;;
48767;SDS011;34933;40.968;14.538;2023-10-08T06:10:38;16.45;;;11.20;;
48767;SDS011;34933;40.968;14.538;2023-10-08T06:13:23;16.13;;;12.10;;
48767;SDS011;34933;40.968;14.538;2023-10-08T06:16:13;13.35;;;10.77;;
48767;SDS011;34933;40.968;14.538;2023-10-08T06:19:15;17.23;;;12.18;;
48767;SDS011;34933;40.968;14.538;2023-10-08T06:21:59;12.45;;;10.38;;
48767;SDS011;34933;40.968;14.538;2023-10-08T06:24:48;12.65;;;11.13;;
48767;SDS011;34933;40.968;14.538;2023-10-08T06:27:33;14.27;;;11.27;;
48767;SDS011;34933;40.968;14.538;2023-10-08T06:30:17;12.82;;;11.25;;
48767;SDS011;34933;40.968;14.538;2023-10-08T06:33:02;21.33;;;13.15;;
48767;SDS011;34933;40.968;14.538;2023-10-08T06:35:47;24.52;;;14.63;;
48767;SDS011;34933;40.968;14.538;2023-10-08T06:38:51;22.63;;;15.68;;
48767;SDS011;34933;40.968;14.538;2023-10-08T06:41:35;23.50;;;15.65;;
48767;SDS011;34933;40.968;14.538;2023-10-08T06:44:20;18.67;;;13.23;;
48767;SDS011;34933;40.968;14.538;2023-10-08T06:47:04;17.45;;;13.45;;
48767;SDS011;34933;40.968;14.538;2023-10-08T06:49:53;20.33;;;15.07;;
48767;SDS011;34933;40.968;14.538;2023-10-08T06:52:37;22.08;;;15.70;;
48767;SDS011;34933;40.968;14.538;2023-10-08T06:55:22;20.88;;;16.88;;
48767;SDS011;34933;40.968;14.538;2023-10-08T06:58:09;21.42;;;16.33;;
48767;SDS011;34933;40.968;14.538;2023-10-08T07:00:58;19.95;;;13.23;;
48767;SDS011;34933;40.968;14.538;2023-10-08T07:03:48;18.30;;;15.00;;
48767;SDS011;34933;40.968;14.538;2023-10-08T07:06:34;16.95;;;13.60;;
48767;SDS011;34933;40.968;14.538;2023-10-08T07:09:21;20.60;;;14.77;;
48767;SDS011;34933;40.968;14.538;2023-10-08T07:12:11;18.42;;;13.77;;
48767;SDS011;34933;40.968;14.538;2023-10-08T07:14:58;18.75;;;13.80;;
48767;SDS011;34933;40.968;14.538;2023-10-08T07:17:42;20.23;;;13.57;;
48767;SDS011;34933;40.968;14.538;2023-10-08T07:20:27;16.70;;;12.15;;
48767;SDS011;34933;40.968;14.538;2023-10-08T07:23:12;16.67;;;12.25;;
48767;SDS011;34933;40.968;14.538;2023-10-08T07:26:03;17.90;;;11.85;;
48767;SDS011;34933;40.968;14.538;2023-10-08T07:29:02;15.63;;;11.80;;
48767;SDS011;34933;40.968;14.538;2023-10-08T07:31:52;18.08;;;13.05;;
48767;SDS011;34933;40.968;14.538;2023-10-08T07:34:37;18.42;;;12.73;;
48767;SDS011;34933;40.968;14.538;2023-10-08T07:37:21;18.08;;;13.18;;
48767;SDS011;34933;40.968;14.538;2023-10-08T07:40:06;17.42;;;13.98;;
48767;SDS011;34933;40.968;14.538;2023-10-08T07:42:54;18.30;;;12.13;;
48767;SDS011;34933;40.968;14.538;2023-10-08T07:45:38;20.02;;;14.02;;
48767;SDS011;34933;40.968;14.538;2023-10-08T07:48:22;17.00;;;13.27;;
48767;SDS011;34933;40.968;14.538;2023-10-08T07:51:14;21.40;;;14.02;;
48767;SDS011;34933;40.968;14.538;2023-10-08T07:53:58;23.90;;;15.40;;
48767;SDS011;34933;40.968;14.538;2023-10-08T07:56:43;19.30;;;13.93;;
48767;SDS011;34933;40.968;14.538;2023-10-08T07:59:28;19.92;;;13.80;;
48767;SDS011;34933;40.968;14.538;2023-10-08T08:02:14;19.05;;;14.50;;
48767;SDS011;34933;40.968;14.538;2023-10-08T08:05:01;15.65;;;13.05;;
48767;SDS011;34933;40.968;14.538;2023-10-08T08:07:46;15.15;;;12.27;;
48767;SDS011;34933;40.968;14.538;2023-10-08T08:10:33;14.80;;;12.02;;
48767;SDS011;34933;40.968;14.538;2023-10-08T08:13:21;15.25;;;12.20;;
48767;SDS011;34933;40.968;14.538;2023-10-08T08:16:06;22.05;;;13.65;;
48767;SDS011;34933;40.968;14.538;2023-10-08T08:19:00;16.63;;;12.80;;
48767;SDS011;34933;40.968;14.538;2023-10-08T08:21:45;19.63;;;13.18;;
48767;SDS011;34933;40.968;14.538;2023-10-08T08:24:29;15.73;;;12.82;;
48767;SDS011;34933;40.968;14.538;2023-10-08T08:27:20;16.80;;;13.20;;
48767;SDS011;34933;40.968;14.538;2023-10-08T08:30:08;17.88;;;15.40;;
48767;SDS011;34933;40.968;14.538;2023-10-08T08:33:00;16.30;;;13.88;;
48767;SDS011;34933;40.968;14.538;2023-10-08T08:36:00;18.30;;;14.40;;
48767;SDS011;34933;40.968;14.538;2023-10-08T08:38:45;18.02;;;13.52;;
48767;SDS011;34933;40.968;14.538;2023-10-08T08:41:29;20.98;;;14.60;;
48767;SDS011;34933;40.968;14.538;2023-10-08T08:44:14;20.65;;;14.77;;
48767;SDS011;34933;40.968;14.538;2023-10-08T08:46:59;18.30;;;14.10;;
48767;SDS011;34933;40.968;14.538;2023-10-08T08:49:48;20.70;;;14.10;;
48767;SDS011;34933;40.968;14.538;2023-10-08T08:52:35;20.30;;;16.58;;
48767;SDS011;34933;40.968;14.538;2023-10-08T08:55:21;20.08;;;15.77;;
48767;SDS011;34933;40.968;14.538;2023-10-08T08:58:05;19.52;;;15.02;;
48767;SDS011;34933;40.968;14.538;2023-10-08T09:00:54;21.77;;;15.23;;
48767;SDS011;34933;40.968;14.538;2023-10-08T09:03:39;21.50;;;14.30;;
48767;SDS011;34933;40.968;14.538;2023-10-08T09:06:24;19.67;;;13.65;;
48767;SDS011;34933;40.968;14.538;2023-10-08T09:09:09;17.23;;;12.75;;
48767;SDS011;34933;40.968;14.538;2023-10-08T09:12:19;15.48;;;12.10;;
48767;SDS011;34933;40.968;14.538;2023-10-08T09:15:05;16.35;;;12.48;;
48767;SDS011;34933;40.968;14.538;2023-10-08T09:17:53;18.00;;;12.43;;
48767;SDS011;34933;40.968;14.538;2023-10-08T09:20:38;19.15;;;13.02;;
48767;SDS011;34933;40.968;14.538;2023-10-08T09:23:27;18.50;;;12.82;;
48767;SDS011;34933;40.968;14.538;2023-10-08T09:26:13;17.00;;;12.75;;
48767;SDS011;34933;40.968;14.538;2023-10-08T09:29:00;26.88;;;14.20;;
48767;SDS011;34933;40.968;14.538;2023-10-08T09:31:58;18.55;;;12.07;;
48767;SDS011;34933;40.968;14.538;2023-10-08T09:34:43;18.15;;;13.93;;
48767;SDS011;34933;40.968;14.538;2023-10-08T09:37:28;16.27;;;12.45;;
48767;SDS011;34933;40.968;14.538;2023-10-08T09:40:12;15.20;;;12.43;;
48767;SDS011;34933;40.968;14.538;2023-10-08T09:43:04;14.65;;;12.52;;
48767;SDS011;34933;40.968;14.538;2023-10-08T09:46:00;23.55;;;12.23;;
48767;SDS011;34933;40.968;14.538;2023-10-08T09:49:02;16.80;;;10.93;;
48767;SDS011;34933;40.968;14.538;2023-10-08T09:51:50;15.35;;;11.38;;
48767;SDS011;34933;40.968;14.538;2023-10-08T09:54:37;19.05;;;11.48;;
48767;SDS011;34933;40.968;14.538;2023-10-08T09:57:28;24.00;;;13.98;;
48767;SDS011;34933;40.968;14.538;2023-10-08T10:00:12;19.58;;;11.80;;
48767;SDS011;34933;40.968;14.538;2023-10-08T10:02:59;15.00;;;12.90;;
48767;SDS011;34933;40.968;14.538;2023-10-08T10:05:45;21.75;;;13.45;;
48767;SDS011;34933;40.968;14.538;2023-10-08T10:08:31;16.77;;;12.13;;
48767;SDS011;34933;40.968;14.538;2023-10-08T10:11:19;15.50;;;11.45;;
48767;SDS011;34933;40.968;14.538;2023-10-08T10:14:04;14.80;;;10.80;;
48767;SDS011;34933;40.968;14.538;2023-10-08T10:17:10;16.48;;;10.25;;
48767;SDS011;34933;40.968;14.538;2023-10-08T10:20:00;14.05;;;10.02;;
48767;SDS011;34933;40.968;14.538;2023-10-08T10:22:45;13.15;;;9.38;;
48767;SDS011;34933;40.968;14.538;2023-10-08T10:25:34;13.48;;;9.13;;
48767;SDS011;34933;40.968;14.538;2023-10-08T10:28:26;8.70;;;7.70;;
48767;SDS011;34933;40.968;14.538;2023-10-08T10:31:18;13.15;;;9.00;;
48767;SDS011;34933;40.968;14.538;2023-10-08T10:34:13;16.00;;;8.73;;
48767;SDS011;34933;40.968;14.538;2023-10-08T10:37:00;13.05;;;9.27;;
48767;SDS011;34933;40.968;14.538;2023-10-08T10:40:03;11.68;;;8.52;;
48767;SDS011;34933;40.968;14.538;2023-10-08T10:42:58;11.45;;;8.48;;
48767;SDS011;34933;40.968;14.538;2023-10-08T10:45:44;11.30;;;8.32;;
48767;SDS011;34933;40.968;14.538;2023-10-08T10:48:30;13.73;;;8.38;;
48767;SDS011;34933;40.968;14.538;2023-10-08T10:51:18;11.90;;;8.38;;
48767;SDS011;34933;40.968;14.538;2023-10-08T10:54:03;11.45;;;8.07;;
48767;SDS011;34933;40.968;14.538;2023-10-08T10:56:54;14.13;;;8.73;;
48767;SDS011;34933;40.968;14.538;2023-10-08T10:59:47;9.93;;;8.63;;
48767;SDS011;34933;40.968;14.538;2023-10-08T11:02:36;14.38;;;8.07;;
48767;SDS011;34933;40.968;14.538;2023-10-08T11:05:23;19.13;;;9.13;;
48767;SDS011;34933;40.968;14.538;2023-10-08T11:08:12;15.73;;;7.72;;
48767;SDS011;34933;40.968;14.538;2023-10-08T11:10:58;16.25;;;9.68;;
48767;SDS011;34933;40.968;14.538;2023-10-08T11:13:43;13.13;;;9.18;;
48767;SDS011;34933;40.968;14.538;2023-10-08T11:16:31;11.50;;;8.55;;
48767;SDS011;34933;40.968;14.538;2023-10-08T11:19:18;12.32;;;9.20;;
48767;SDS011;34933;40.968;14.538;2023-10-08T11:22:05;11.70;;;8.38;;
48767;SDS011;34933;40.968;14.538;2023-10-08T11:24:50;13.45;;;8.63;;
48767;SDS011;34933;40.968;14.538;2023-10-08T11:27:40;10.10;;;8.93;;
48767;SDS011;34933;40.968;14.538;2023-10-08T11:30:30;12.93;;;9.48;;
48767;SDS011;34933;40.968;14.538;2023-10-08T11:33:15;11.27;;;8.45;;
48767;SDS011;34933;40.968;14.538;2023-10-08T11:36:03;11.80;;;8.90;;
48767;SDS011;34933;40.968;14.538;2023-10-08T11:39:09;12.00;;;8.45;;
48767;SDS011;34933;40.968;14.538;2023-10-08T11:41:59;13.40;;;10.93;;
48767;SDS011;34933;40.968;14.538;2023-10-08T11:44:50;15.02;;;10.70;;
48767;SDS011;34933;40.968;14.538;2023-10-08T11:47:36;16.92;;;11.23;;
48767;SDS011;34933;40.968;14.538;2023-10-08T11:50:22;14.20;;;11.35;;
48767;SDS011;34933;40.968;14.538;2023-10-08T11:53:14;13.45;;;8.77;;
48767;SDS011;34933;40.968;14.538;2023-10-08T11:55:59;10.60;;;8.13;;
48767;SDS011;34933;40.968;14.538;2023-10-08T11:58:45;17.20;;;8.70;;
48767;SDS011;34933;40.968;14.538;2023-10-08T12:01:30;10.00;;;7.00;;
48767;SDS011;34933;40.968;14.538;2023-10-08T12:04:19;10.60;;;9.38;;
48767;SDS011;34933;40.968;14.538;2023-10-08T12:07:06;12.48;;;9.05;;
48767;SDS011;34933;40.968;14.538;2023-10-08T12:09:51;11.90;;;9.27;;
48767;SDS011;34933;40.968;14.538;2023-10-08T12:12:38;8.80;;;7.88;;
48767;SDS011;34933;40.968;14.538;2023-10-08T12:15:22;8.85;;;7.32;;
48767;SDS011;34933;40.968;14.538;2023-10-08T12:18:17;9.07;;;7.40;;
48767;SDS011;34933;40.968;14.538;2023-10-08T12:21:10;10.90;;;7.53;;
48767;SDS011;34933;40.968;14.538;2023-10-08T12:23:58;11.38;;;8.00;;
48767;SDS011;34933;40.968;14.538;2023-10-08T12:26:44;11.52;;;7.35;;
48767;SDS011;34933;40.968;14.538;2023-10-08T12:29:29;10.82;;;9.43;;
48767;SDS011;34933;40.968;14.538;2023-10-08T12:32:16;9.93;;;7.72;;
48767;SDS011;34933;40.968;14.538;2023-10-08T12:35:03;8.23;;;7.28;;
48767;SDS011;34933;40.968;14.538;2023-10-08T12:37:48;8.05;;;7.28;;
48767;SDS011;34933;40.968;14.538;2023-10-08T12:40:33;11.95;;;8.70;;
48767;SDS011;34933;40.968;14.538;2023-10-08T12:43:26;8.80;;;7.90;;
48767;SDS011;34933;40.968;14.538;2023-10-08T12:46:14;11.18;;;7.70;;
48767;SDS011;34933;40.968;14.538;2023-10-08T12:49:02;10.57;;;7.63;;
48767;SDS011;34933;40.968;14.538;2023-10-08T12:51:47;10.88;;;7.97;;
48767;SDS011;34933;40.968;14.538;2023-10-08T12:54:31;10.65;;;8.00;;
48767;SDS011;34933;40.968;14.538;2023-10-08T12:57:30;9.68;;;7.88;;
48767;SDS011;34933;40.968;14.538;2023-10-08T13:00:18;8.18;;;7.38;;
48767;SDS011;34933;40.968;14.538;2023-10-08T13:03:07;9.65;;;7.57;;
48767;SDS011;34933;40.968;14.538;2023-10-08T13:06:09;8.65;;;7.85;;
48767;SDS011;34933;40.968;14.538;2023-10-08T13:08:59;9.00;;;8.10;;
48767;SDS011;34933;40.968;14.538;2023-10-08T13:11:44;14.80;;;8.05;;
48767;SDS011;34933;40.968;14.538;2023-10-08T13:14:29;10.00;;;7.45;;
48767;SDS011;34933;40.968;14.538;2023-10-08T13:17:15;7.95;;;7.22;;
48767;SDS011;34933;40.968;14.538;2023-10-08T13:20:00;8.52;;;7.82;;
48767;SDS011;34933;40.968;14.538;2023-10-08T13:22:44;8.82;;;7.70;;
48767;SDS011;34933;40.968;14.538;2023-10-08T13:25:30;8.52;;;7.70;;
48767;SDS011;34933;40.968;14.538;2023-10-08T13:28:17;7.68;;;6.97;;
48767;SDS011;34933;40.968;14.538;2023-10-08T13:31:04;11.85;;;7.63;;
48767;SDS011;34933;40.968;14.538;2023-10-08T13:33:55;10.50;;;7.57;;
48767;SDS011;34933;40.968;14.538;2023-10-08T13:36:46;7.78;;;7.00;;
48767;SDS011;34933;40.968;14.538;2023-10-08T13:39:33;8.10;;;7.15;;
48767;SDS011;34933;40.968;14.538;2023-10-08T13:42:19;7.78;;;6.97;;
48767;SDS011;34933;40.968;14.538;2023-10-08T13:45:05;9.18;;;7.30;;
48767;SDS011;34933;40.968;14.538;2023-10-08T13:47:52;11.25;;;7.03;;
48767;SDS011;34933;40.968;14.538;2023-10-08T13:50:37;7.70;;;7.03;;
48767;SDS011;34933;40.968;14.538;2023-10-08T13:53:21;7.57;;;6.65;;
48767;SDS011;34933;40.968;14.538;2023-10-08T13:56:06;8.43;;;6.25;;
48767;SDS011;34933;40.968;14.538;2023-10-08T13:58:51;7.95;;;7.05;;
48767;SDS011;34933;40.968;14.538;2023-10-08T14:01:40;7.75;;;6.60;;
48767;SDS011;34933;40.968;14.538;2023-10-08T14:04:35;8.77;;;7.50;;
48767;SDS011;34933;40.968;14.538;2023-10-08T14:07:23;7.90;;;7.10;;
48767;SDS011;34933;40.968;14.538;2023-10-08T14:10:09;9.57;;;6.85;;
48767;SDS011;34933;40.968;14.538;2023-10-08T14:13:01;8.02;;;7.28;;
48767;SDS011;34933;40.968;14.538;2023-10-08T14:15:46;8.80;;;6.75;;
48767;SDS011;34933;40.968;14.538;2023-10-08T14:18:32;7.85;;;6.93;;
48767;SDS011;34933;40.968;14.538;2023-10-08T14:21:24;11.23;;;7.97;;
48767;SDS011;34933;40.968;14.538;2023-10-08T14:24:16;9.23;;;8.20;;
48767;SDS011;34933;40.968;14.538;2023-10-08T14:27:00;8.15;;;7.00;;
48767;SDS011;34933;40.968;14.538;2023-10-08T14:29:53;9.63;;;7.20;;
48767;SDS011;34933;40.968;14.538;2023-10-08T14:32:38;8.55;;;6.65;;
48767;SDS011;34933;40.968;14.538;2023-10-08T14:35:22;8.07;;;6.60;;
48767;SDS011;34933;40.968;14.538;2023-10-08T14:38:25;9.63;;;6.45;;
48767;SDS011;34933;40.968;14.538;2023-10-08T14:41:28;9.15;;;7.00;;
48767;SDS011;34933;40.968;14.538;2023-10-08T14:44:31;11.15;;;7.05;;
48767;SDS011;34933;40.968;14.538;2023-10-08T14:47:18;7.32;;;6.63;;
48767;SDS011;34933;40.968;14.538;2023-10-08T14:50:03;7.85;;;6.13;;
48767;SDS011;34933;40.968;14.538;2023-10-08T14:52:49;10.35;;;6.78;;
48767;SDS011;34933;40.968;14.538;2023-10-08T14:55:37;15.88;;;7.97;;
48767;SDS011;34933;40.968;14.538;2023-10-08T14:58:22;9.07;;;7.50;;
48767;SDS011;34933;40.968;14.538;2023-10-08T15:01:06;14.90;;;7.72;;
48767;SDS011;34933;40.968;14.538;2023-10-08T15:03:51;13.75;;;8.65;;
48767;SDS011;34933;40.968;14.538;2023-10-08T15:06:36;13.80;;;9.75;;
48767;SDS011;34933;40.968;14.538;2023-10-08T15:09:22;10.52;;;9.48;;
48767;SDS011;34933;40.968;14.538;2023-10-08T15:12:07;11.43;;;8.90;;
48767;SDS011;34933;40.968;14.538;2023-10-08T15:14:52;12.00;;;8.63;;
48767;SDS011;34933;40.968;14.538;2023-10-08T15:17:37;10.40;;;7.93;;
48767;SDS011;34933;40.968;14.538;2023-10-08T15:20:21;10.00;;;8.07;;
48767;SDS011;34933;40.968;14.538;2023-10-08T15:23:07;12.40;;;9.10;;
48767;SDS011;34933;40.968;14.538;2023-10-08T15:25:56;11.27;;;7.95;;
48767;SDS011;34933;40.968;14.538;2023-10-08T15:28:40;13.18;;;8.23;;
48767;SDS011;34933;40.968;14.538;2023-10-08T15:31:25;14.45;;;7.95;;
48767;SDS011;34933;40.968;14.538;2023-10-08T15:34:09;9.20;;;8.40;;
48767;SDS011;34933;40.968;14.538;2023-10-08T15:36:56;13.02;;;8.30;;
48767;SDS011;34933;40.968;14.538;2023-10-08T15:39:40;11.35;;;8.00;;
48767;SDS011;34933;40.968;14.538;2023-10-08T15:42:25;12.25;;;8.52;;
48767;SDS011;34933;40.968;14.538;2023-10-08T15:45:10;12.48;;;8.45;;
48767;SDS011;34933;40.968;14.538;2023-10-08T15:47:57;11.10;;;7.88;;
48767;SDS011;34933;40.968;14.538;2023-10-08T15:50:42;10.27;;;8.43;;
48767;SDS011;34933;40.968;14.538;2023-10-08T15:53:26;10.52;;;8.43;;
48767;SDS011;34933;40.968;14.538;2023-10-08T15:56:11;10.43;;;8.07;;
48767;SDS011;34933;40.968;14.538;2023-10-08T15:58:56;11.88;;;8.55;;
48767;SDS011;34933;40.968;14.538;2023-10-08T16:01:40;12.60;;;8.20;;
48767;SDS011;34933;40.968;14.538;2023-10-08T16:04:30;9.80;;;8.80;;
48767;SDS011;34933;40.968;14.538;2023-10-08T16:07:15;20.95;;;10.02;;
48767;SDS011;34933;40.968;14.538;2023-10-08T16:09:59;26.50;;;20.10;;
48767;SDS011;34933;40.968;14.538;2023-10-08T16:12:44;53.70;;;37.42;;
48767;SDS011;34933;40.968;14.538;2023-10-08T16:15:29;57.00;;;37.78;;
48767;SDS011;34933;40.968;14.538;2023-10-08T16:18:13;45.15;;;28.33;;
48767;SDS011;34933;40.968;14.538;2023-10-08T16:20:58;29.88;;;17.77;;
48767;SDS011;34933;40.968;14.538;2023-10-08T16:23:44;20.80;;;14.82;;